sensor_id;sensor_type;location;lat;lon;timestamp;pressure;altitude;pressure_sealevel;temperature;humidity
60820;BME280;46641;48.904;9.126;2023-02-26T00:03:43;98136.28;;;9.76;66.13
60820;BME280;46641;48.904;9.126;2023-02-26T00:08:34;98128.44;;;9.76;65.76
60820;BME280;46641;48.904;9.126;2023-02-26T00:13:24;98127.75;;;9.74;66.01
60820;BME280;46641;48.904;9.126;2023-02-26T00:18:15;98125.31;;;9.73;65.80
60820;BME280;46641;48.904;9.126;2023-02-26T00:23:05;98124.63;;;9.71;66.08
60820;BME280;46641;48.904;9.126;2023-02-26T00:27:56;98138.69;;;9.70;66.13
60820;BME280;46641;48.904;9.126;2023-02-26T00:32:46;98131.81;;;9.69;66.23
60820;BME280;46641;48.904;9.126;2023-02-26T00:38:06;98135.69;;;9.65;65.21
60820;BME280;46641;48.904;9.126;2023-02-26T00:42:58;98136.81;;;9.62;65.98
60820;BME280;46641;48.904;9.126;2023-02-26T00:53:28;98138.88;;;9.58;65.40
60820;BME280;46641;48.904;9.126;2023-02-26T00:58:21;98137.44;;;9.56;66.17
60820;BME280;46641;48.904;9.126;2023-02-26T01:03:11;98137.72;;;9.53;66.02
60820;BME280;46641;48.904;9.126;2023-02-26T01:08:12;98144.88;;;9.51;65.41
60820;BME280;46641;48.904;9.126;2023-02-26T01:13:04;98143.25;;;9.50;66.34
60820;BME280;46641;48.904;9.126;2023-02-26T01:18:11;98145.16;;;9.48;65.34
60820;BME280;46641;48.904;9.126;2023-02-26T01:23:07;98147.13;;;9.46;66.38
60820;BME280;46641;48.904;9.126;2023-02-26T01:27:58;98129.97;;;9.43;66.52
60820;BME280;46641;48.904;9.126;2023-02-26T01:38:03;98145.75;;;9.42;65.90
60820;BME280;46641;48.904;9.126;2023-02-26T01:43:02;98147.44;;;9.43;66.29
60820;BME280;46641;48.904;9.126;2023-02-26T01:47:56;98139.88;;;9.40;66.69
60820;BME280;46641;48.904;9.126;2023-02-26T01:57:39;98141.00;;;9.37;66.31
60820;BME280;46641;48.904;9.126;2023-02-26T02:02:30;98153.25;;;9.36;66.59
60820;BME280;46641;48.904;9.126;2023-02-26T02:07:21;98145.72;;;9.33;66.64
60820;BME280;46641;48.904;9.126;2023-02-26T02:17:55;98156.75;;;9.27;66.07
60820;BME280;46641;48.904;9.126;2023-02-26T02:27:57;98164.72;;;9.26;66.36
60820;BME280;46641;48.904;9.126;2023-02-26T02:33:00;98164.19;;;9.22;66.33
60820;BME280;46641;48.904;9.126;2023-02-26T02:37:59;98173.16;;;9.20;66.62
60820;BME280;46641;48.904;9.126;2023-02-26T02:42:58;98177.53;;;9.19;67.10
60820;BME280;46641;48.904;9.126;2023-02-26T02:47:55;98182.09;;;9.17;66.63
60820;BME280;46641;48.904;9.126;2023-02-26T02:52:56;98170.97;;;9.15;66.18
60820;BME280;46641;48.904;9.126;2023-02-26T03:03:15;98179.09;;;9.12;67.05
60820;BME280;46641;48.904;9.126;2023-02-26T03:08:05;98182.81;;;9.09;66.73
60820;BME280;46641;48.904;9.126;2023-02-26T03:12:57;98186.56;;;9.07;67.17
60820;BME280;46641;48.904;9.126;2023-02-26T03:28:34;98198.38;;;9.01;67.02
60820;BME280;46641;48.904;9.126;2023-02-26T03:33:48;98204.03;;;8.97;66.29
60820;BME280;46641;48.904;9.126;2023-02-26T03:39:03;98209.53;;;8.94;66.92
60820;BME280;46641;48.904;9.126;2023-02-26T03:44:01;98214.75;;;8.94;66.82
60820;BME280;46641;48.904;9.126;2023-02-26T03:48:53;98220.28;;;8.91;66.77
60820;BME280;46641;48.904;9.126;2023-02-26T03:54:07;98231.00;;;8.87;66.39
60820;BME280;46641;48.904;9.126;2023-02-26T03:58:59;98229.22;;;8.88;67.17
60820;BME280;46641;48.904;9.126;2023-02-26T04:08:39;98233.91;;;8.84;67.19
60820;BME280;46641;48.904;9.126;2023-02-26T04:13:30;98234.19;;;8.81;67.10
60820;BME280;46641;48.904;9.126;2023-02-26T04:18:21;98235.13;;;8.80;67.27
60820;BME280;46641;48.904;9.126;2023-02-26T04:23:11;98227.75;;;8.76;66.95
60820;BME280;46641;48.904;9.126;2023-02-26T04:28:02;98237.38;;;8.75;66.88
60820;BME280;46641;48.904;9.126;2023-02-26T04:32:52;98236.16;;;8.70;67.30
60820;BME280;46641;48.904;9.126;2023-02-26T04:37:42;98244.25;;;8.66;67.51
60820;BME280;46641;48.904;9.126;2023-02-26T04:42:33;98257.44;;;8.65;66.99
60820;BME280;46641;48.904;9.126;2023-02-26T04:47:23;98257.72;;;8.62;67.38
60820;BME280;46641;48.904;9.126;2023-02-26T04:52:14;98261.28;;;8.61;67.51
60820;BME280;46641;48.904;9.126;2023-02-26T04:57:04;98260.75;;;8.57;67.23
60820;BME280;46641;48.904;9.126;2023-02-26T05:01:54;98270.53;;;8.55;67.29
60820;BME280;46641;48.904;9.126;2023-02-26T05:06:44;98265.44;;;8.54;67.01
60820;BME280;46641;48.904;9.126;2023-02-26T05:11:35;98278.47;;;8.54;67.02
60820;BME280;46641;48.904;9.126;2023-02-26T05:16:25;98279.72;;;8.50;67.44
60820;BME280;46641;48.904;9.126;2023-02-26T05:21:15;98282.44;;;8.48;67.06
60820;BME280;46641;48.904;9.126;2023-02-26T05:26:06;98289.34;;;8.49;67.25
60820;BME280;46641;48.904;9.126;2023-02-26T05:30:56;98293.03;;;8.47;67.33
60820;BME280;46641;48.904;9.126;2023-02-26T05:35:47;98301.00;;;8.45;67.05
60820;BME280;46641;48.904;9.126;2023-02-26T05:40:38;98301.94;;;8.44;67.28
60820;BME280;46641;48.904;9.126;2023-02-26T05:45:28;98303.03;;;8.41;67.12
60820;BME280;46641;48.904;9.126;2023-02-26T05:50:18;98313.78;;;8.38;66.82
60820;BME280;46641;48.904;9.126;2023-02-26T05:55:09;98316.47;;;8.37;67.43
60820;BME280;46641;48.904;9.126;2023-02-26T05:59:59;98332.41;;;8.34;67.73
60820;BME280;46641;48.904;9.126;2023-02-26T06:04:49;98331.59;;;8.33;67.07
60820;BME280;46641;48.904;9.126;2023-02-26T06:09:39;98343.91;;;8.31;67.61
60820;BME280;46641;48.904;9.126;2023-02-26T06:14:30;98346.53;;;8.31;67.05
60820;BME280;46641;48.904;9.126;2023-02-26T06:19:20;98344.06;;;8.30;67.24
60820;BME280;46641;48.904;9.126;2023-02-26T06:24:10;98360.00;;;8.27;66.95
60820;BME280;46641;48.904;9.126;2023-02-26T06:29:00;98363.56;;;8.26;67.36
60820;BME280;46641;48.904;9.126;2023-02-26T06:33:51;98366.44;;;8.23;66.99
60820;BME280;46641;48.904;9.126;2023-02-26T06:38:41;98380.41;;;8.22;67.58
60820;BME280;46641;48.904;9.126;2023-02-26T06:43:34;98396.31;;;8.18;67.26
60820;BME280;46641;48.904;9.126;2023-02-26T06:48:24;98405.00;;;8.19;67.34
60820;BME280;46641;48.904;9.126;2023-02-26T06:53:15;98411.28;;;8.16;67.49
60820;BME280;46641;48.904;9.126;2023-02-26T06:58:05;98426.25;;;8.14;67.20
60820;BME280;46641;48.904;9.126;2023-02-26T07:02:55;98429.94;;;8.12;67.17
60820;BME280;46641;48.904;9.126;2023-02-26T07:07:46;98437.75;;;8.12;66.96
60820;BME280;46641;48.904;9.126;2023-02-26T07:12:36;98436.94;;;8.11;66.99
60820;BME280;46641;48.904;9.126;2023-02-26T07:17:27;98446.53;;;8.11;67.02
60820;BME280;46641;48.904;9.126;2023-02-26T07:22:18;98450.94;;;8.10;66.74
60820;BME280;46641;48.904;9.126;2023-02-26T07:27:09;98452.97;;;8.07;67.20
60820;BME280;46641;48.904;9.126;2023-02-26T07:31:59;98454.63;;;8.08;66.72
60820;BME280;46641;48.904;9.126;2023-02-26T07:36:50;98457.22;;;8.08;67.11
60820;BME280;46641;48.904;9.126;2023-02-26T07:41:40;98465.88;;;8.08;67.12
60820;BME280;46641;48.904;9.126;2023-02-26T07:46:30;98462.44;;;8.08;66.54
60820;BME280;46641;48.904;9.126;2023-02-26T07:51:21;98456.53;;;8.06;66.31
60820;BME280;46641;48.904;9.126;2023-02-26T07:56:11;98468.63;;;8.07;66.22
60820;BME280;46641;48.904;9.126;2023-02-26T08:01:02;98477.25;;;8.07;66.13
60820;BME280;46641;48.904;9.126;2023-02-26T08:05:52;98472.16;;;8.06;66.11
60820;BME280;46641;48.904;9.126;2023-02-26T08:10:42;98478.34;;;8.05;66.27
60820;BME280;46641;48.904;9.126;2023-02-26T08:15:32;98479.97;;;8.06;65.25
60820;BME280;46641;48.904;9.126;2023-02-26T08:20:23;98475.63;;;8.06;66.01
60820;BME280;46641;48.904;9.126;2023-02-26T08:25:13;98480.81;;;8.06;65.65
60820;BME280;46641;48.904;9.126;2023-02-26T08:30:04;98489.84;;;8.02;63.87
60820;BME280;46641;48.904;9.126;2023-02-26T08:34:56;98489.59;;;8.05;63.61
60820;BME280;46641;48.904;9.126;2023-02-26T08:39:46;98486.88;;;8.07;63.57
60820;BME280;46641;48.904;9.126;2023-02-26T08:44:37;98503.28;;;7.97;63.12
60820;BME280;46641;48.904;9.126;2023-02-26T08:49:27;98505.19;;;7.95;63.00
60820;BME280;46641;48.904;9.126;2023-02-26T08:54:17;98514.19;;;7.82;62.50
60820;BME280;46641;48.904;9.126;2023-02-26T08:59:08;98515.41;;;7.78;62.48
60820;BME280;46641;48.904;9.126;2023-02-26T09:04:00;98523.59;;;7.73;59.61
60820;BME280;46641;48.904;9.126;2023-02-26T09:08:51;98524.81;;;7.69;62.21
60820;BME280;46641;48.904;9.126;2023-02-26T09:13:41;98545.91;;;7.66;63.88
60820;BME280;46641;48.904;9.126;2023-02-26T09:18:31;98532.38;;;7.72;62.97
60820;BME280;46641;48.904;9.126;2023-02-26T09:23:22;98542.72;;;7.83;63.11
60820;BME280;46641;48.904;9.126;2023-02-26T09:28:12;98547.59;;;7.77;62.69
60820;BME280;46641;48.904;9.126;2023-02-26T09:33:03;98541.31;;;7.79;63.54
60820;BME280;46641;48.904;9.126;2023-02-26T09:37:53;98548.34;;;7.88;63.17
60820;BME280;46641;48.904;9.126;2023-02-26T09:47:46;98560.81;;;7.85;62.99
60820;BME280;46641;48.904;9.126;2023-02-26T09:52:44;98571.56;;;7.91;62.56
60820;BME280;46641;48.904;9.126;2023-02-26T09:57:41;98571.03;;;7.77;62.73
60820;BME280;46641;48.904;9.126;2023-02-26T10:02:48;98575.56;;;7.75;59.44
60820;BME280;46641;48.904;9.126;2023-02-26T10:07:50;98580.53;;;7.78;62.25
60820;BME280;46641;48.904;9.126;2023-02-26T10:12:44;98578.34;;;7.83;63.14
60820;BME280;46641;48.904;9.126;2023-02-26T10:22:56;98584.53;;;8.03;61.65
60820;BME280;46641;48.904;9.126;2023-02-26T10:38:59;98593.53;;;7.99;61.64
60820;BME280;46641;48.904;9.126;2023-02-26T10:44:03;98594.66;;;8.06;60.79
60820;BME280;46641;48.904;9.126;2023-02-26T10:59:20;98597.22;;;7.96;61.18
60820;BME280;46641;48.904;9.126;2023-02-26T11:04:12;98610.03;;;8.09;62.72
60820;BME280;46641;48.904;9.126;2023-02-26T11:09:06;98610.19;;;8.07;61.09
60820;BME280;46641;48.904;9.126;2023-02-26T11:14:02;98610.94;;;8.19;62.75
60820;BME280;46641;48.904;9.126;2023-02-26T11:18:54;98607.69;;;8.06;62.23
60820;BME280;46641;48.904;9.126;2023-02-26T11:23:48;98599.09;;;8.15;61.53
60820;BME280;46641;48.904;9.126;2023-02-26T11:28:47;98603.78;;;8.21;61.39
60820;BME280;46641;48.904;9.126;2023-02-26T11:33:40;98593.84;;;8.05;59.36
60820;BME280;46641;48.904;9.126;2023-02-26T11:38:32;98608.03;;;7.91;60.41
60820;BME280;46641;48.904;9.126;2023-02-26T11:43:26;98601.28;;;7.89;60.51
60820;BME280;46641;48.904;9.126;2023-02-26T11:48:25;98602.06;;;8.01;61.08
60820;BME280;46641;48.904;9.126;2023-02-26T11:53:23;98593.59;;;8.08;58.85
60820;BME280;46641;48.904;9.126;2023-02-26T11:58:22;98604.06;;;8.18;59.92
60820;BME280;46641;48.904;9.126;2023-02-26T12:03:19;98617.75;;;8.10;57.99
60820;BME280;46641;48.904;9.126;2023-02-26T12:08:17;98598.69;;;8.10;60.61
60820;BME280;46641;48.904;9.126;2023-02-26T12:13:18;98606.66;;;8.18;59.50
60820;BME280;46641;48.904;9.126;2023-02-26T12:18:36;98610.22;;;8.17;58.79
60820;BME280;46641;48.904;9.126;2023-02-26T12:23:58;98620.56;;;8.28;57.58
60820;BME280;46641;48.904;9.126;2023-02-26T12:51:13;98619.72;;;7.76;59.75
60820;BME280;46641;48.904;9.126;2023-02-26T12:55:58;98625.50;;;8.01;56.08
60820;BME280;46641;48.904;9.126;2023-02-26T13:16:49;98634.94;;;8.43;54.79
60820;BME280;46641;48.904;9.126;2023-02-26T13:21:48;98639.00;;;8.36;56.94
60820;BME280;46641;48.904;9.126;2023-02-26T13:26:40;98625.25;;;8.34;60.56
60820;BME280;46641;48.904;9.126;2023-02-26T13:31:46;98640.16;;;8.43;57.91
60820;BME280;46641;48.904;9.126;2023-02-26T13:36:38;98641.53;;;8.48;59.89
60820;BME280;46641;48.904;9.126;2023-02-26T13:47:06;98635.69;;;8.55;59.72
60820;BME280;46641;48.904;9.126;2023-02-26T13:52:03;98646.16;;;8.65;59.53
60820;BME280;46641;48.904;9.126;2023-02-26T14:02:45;98638.59;;;8.62;55.57
60820;BME280;46641;48.904;9.126;2023-02-26T14:07:51;98647.09;;;8.64;55.97
60820;BME280;46641;48.904;9.126;2023-02-26T14:12:42;98644.53;;;8.74;58.81
60820;BME280;46641;48.904;9.126;2023-02-26T14:22:33;98637.81;;;8.71;54.12
60820;BME280;46641;48.904;9.126;2023-02-26T14:37:39;98650.78;;;8.52;56.54
60820;BME280;46641;48.904;9.126;2023-02-26T14:42:34;98655.38;;;8.69;57.17
60820;BME280;46641;48.904;9.126;2023-02-26T14:47:25;98663.09;;;8.80;57.66
60820;BME280;46641;48.904;9.126;2023-02-26T14:52:34;98660.34;;;8.72;54.56
60820;BME280;46641;48.904;9.126;2023-02-26T15:08:17;98679.63;;;8.60;57.47
60820;BME280;46641;48.904;9.126;2023-02-26T15:28:37;98693.19;;;8.54;46.20
60820;BME280;46641;48.904;9.126;2023-02-26T15:33:29;98696.88;;;8.72;55.96
60820;BME280;46641;48.904;9.126;2023-02-26T15:38:19;98688.50;;;8.78;56.03
60820;BME280;46641;48.904;9.126;2023-02-26T15:43:14;98704.53;;;8.74;54.01
60820;BME280;46641;48.904;9.126;2023-02-26T15:48:12;98712.53;;;8.51;54.60
60820;BME280;46641;48.904;9.126;2023-02-26T15:53:04;98714.28;;;8.41;54.73
60820;BME280;46641;48.904;9.126;2023-02-26T15:57:55;98711.56;;;8.31;52.73
60820;BME280;46641;48.904;9.126;2023-02-26T16:02:48;98729.31;;;8.37;56.28
60820;BME280;46641;48.904;9.126;2023-02-26T16:07:38;98728.06;;;8.53;55.46
60820;BME280;46641;48.904;9.126;2023-02-26T16:12:37;98735.94;;;8.62;51.68
60820;BME280;46641;48.904;9.126;2023-02-26T16:17:32;98744.41;;;8.13;55.89
60820;BME280;46641;48.904;9.126;2023-02-26T16:22:33;98753.28;;;8.10;52.76
60820;BME280;46641;48.904;9.126;2023-02-26T16:27:27;98761.88;;;8.22;56.14
60820;BME280;46641;48.904;9.126;2023-02-26T16:32:18;98760.19;;;8.53;56.82
60820;BME280;46641;48.904;9.126;2023-02-26T16:47:38;98788.88;;;8.53;56.00
60820;BME280;46641;48.904;9.126;2023-02-26T16:52:29;98806.91;;;8.56;56.88
60820;BME280;46641;48.904;9.126;2023-02-26T16:57:32;98812.56;;;8.61;53.73
60820;BME280;46641;48.904;9.126;2023-02-26T17:02:27;98810.84;;;8.51;53.94
60820;BME280;46641;48.904;9.126;2023-02-26T17:07:29;98825.31;;;8.55;54.35
60820;BME280;46641;48.904;9.126;2023-02-26T17:12:23;98826.06;;;8.46;54.10
60820;BME280;46641;48.904;9.126;2023-02-26T17:17:17;98836.25;;;8.49;55.26
60820;BME280;46641;48.904;9.126;2023-02-26T17:22:12;98840.94;;;8.55;56.73
60820;BME280;46641;48.904;9.126;2023-02-26T17:27:03;98848.50;;;8.58;57.09
60820;BME280;46641;48.904;9.126;2023-02-26T17:31:54;98850.59;;;8.64;56.59
60820;BME280;46641;48.904;9.126;2023-02-26T17:36:44;98853.47;;;8.61;56.16
60820;BME280;46641;48.904;9.126;2023-02-26T17:41:35;98867.53;;;8.49;55.87
60820;BME280;46641;48.904;9.126;2023-02-26T17:46:25;98883.25;;;8.58;56.67
60820;BME280;46641;48.904;9.126;2023-02-26T17:51:15;98897.00;;;8.60;58.30
60820;BME280;46641;48.904;9.126;2023-02-26T17:56:38;98895.03;;;8.53;53.23
60820;BME280;46641;48.904;9.126;2023-02-26T18:01:30;98901.78;;;8.55;56.49
60820;BME280;46641;48.904;9.126;2023-02-26T18:06:22;98901.31;;;8.50;56.74
60820;BME280;46641;48.904;9.126;2023-02-26T18:11:14;98906.66;;;8.49;56.45
60820;BME280;46641;48.904;9.126;2023-02-26T18:16:06;98908.31;;;8.50;56.08
60820;BME280;46641;48.904;9.126;2023-02-26T18:21:00;98899.09;;;8.46;57.81
60820;BME280;46641;48.904;9.126;2023-02-26T18:25:53;98909.06;;;8.29;55.37
60820;BME280;46641;48.904;9.126;2023-02-26T18:30:43;98907.28;;;8.30;54.09
60820;BME280;46641;48.904;9.126;2023-02-26T18:35:34;98900.41;;;8.29;55.61
60820;BME280;46641;48.904;9.126;2023-02-26T18:40:25;98911.19;;;8.35;56.21
60820;BME280;46641;48.904;9.126;2023-02-26T18:45:17;98910.47;;;8.33;55.32
60820;BME280;46641;48.904;9.126;2023-02-26T18:50:10;98920.91;;;8.33;56.98
60820;BME280;46641;48.904;9.126;2023-02-26T18:55:00;98920.31;;;8.30;54.51
60820;BME280;46641;48.904;9.126;2023-02-26T18:59:52;98915.69;;;8.22;55.87
60820;BME280;46641;48.904;9.126;2023-02-26T19:04:42;98920.22;;;8.20;56.57
60820;BME280;46641;48.904;9.126;2023-02-26T19:09:33;98926.75;;;8.26;56.63
60820;BME280;46641;48.904;9.126;2023-02-26T19:14:24;98927.66;;;8.25;56.51
60820;BME280;46641;48.904;9.126;2023-02-26T19:19:14;98932.88;;;8.25;56.83
60820;BME280;46641;48.904;9.126;2023-02-26T19:24:10;98929.69;;;8.21;55.17
60820;BME280;46641;48.904;9.126;2023-02-26T19:29:01;98933.13;;;8.22;55.90
60820;BME280;46641;48.904;9.126;2023-02-26T19:33:52;98940.97;;;8.10;55.17
60820;BME280;46641;48.904;9.126;2023-02-26T19:38:42;98944.78;;;7.95;55.66
60820;BME280;46641;48.904;9.126;2023-02-26T19:43:36;98959.00;;;7.91;55.16
60820;BME280;46641;48.904;9.126;2023-02-26T19:48:26;98966.09;;;7.89;54.70
60820;BME280;46641;48.904;9.126;2023-02-26T19:53:17;98968.59;;;7.90;56.65
60820;BME280;46641;48.904;9.126;2023-02-26T19:58:08;98969.31;;;7.92;56.14
60820;BME280;46641;48.904;9.126;2023-02-26T20:02:58;98975.38;;;7.93;56.18
60820;BME280;46641;48.904;9.126;2023-02-26T20:07:49;98985.19;;;8.01;56.67
60820;BME280;46641;48.904;9.126;2023-02-26T20:12:39;98991.00;;;8.04;57.53
60820;BME280;46641;48.904;9.126;2023-02-26T20:17:29;98995.00;;;8.08;58.09
60820;BME280;46641;48.904;9.126;2023-02-26T20:22:20;98995.81;;;8.09;58.34
60820;BME280;46641;48.904;9.126;2023-02-26T20:27:11;99006.50;;;8.06;57.28
60820;BME280;46641;48.904;9.126;2023-02-26T20:32:02;99003.66;;;8.09;56.95
60820;BME280;46641;48.904;9.126;2023-02-26T20:36:52;99009.81;;;8.08;57.24
60820;BME280;46641;48.904;9.126;2023-02-26T20:41:43;99004.75;;;8.06;56.46
60820;BME280;46641;48.904;9.126;2023-02-26T20:46:34;99016.09;;;8.05;58.49
60820;BME280;46641;48.904;9.126;2023-02-26T20:51:27;99015.28;;;8.05;59.43
60820;BME280;46641;48.904;9.126;2023-02-26T20:56:18;99029.03;;;8.07;58.51
60820;BME280;46641;48.904;9.126;2023-02-26T21:01:08;99020.38;;;8.06;57.99
60820;BME280;46641;48.904;9.126;2023-02-26T21:05:58;99027.84;;;8.00;56.76
60820;BME280;46641;48.904;9.126;2023-02-26T21:10:50;99033.88;;;8.00;58.97
60820;BME280;46641;48.904;9.126;2023-02-26T21:15:40;99032.44;;;7.96;57.36
60820;BME280;46641;48.904;9.126;2023-02-26T21:20:30;99034.13;;;7.97;58.50
60820;BME280;46641;48.904;9.126;2023-02-26T21:25:21;99027.34;;;7.94;59.12
60820;BME280;46641;48.904;9.126;2023-02-26T21:30:13;99028.31;;;7.93;58.20
60820;BME280;46641;48.904;9.126;2023-02-26T21:35:04;99032.72;;;7.93;58.55
60820;BME280;46641;48.904;9.126;2023-02-26T21:39:55;99039.66;;;7.92;59.18
60820;BME280;46641;48.904;9.126;2023-02-26T21:44:45;99032.31;;;7.86;58.31
60820;BME280;46641;48.904;9.126;2023-02-26T21:49:36;99029.97;;;7.83;58.04
60820;BME280;46641;48.904;9.126;2023-02-26T21:54:27;99036.34;;;7.79;58.87
60820;BME280;46641;48.904;9.126;2023-02-26T21:59:17;99031.38;;;7.76;57.68
60820;BME280;46641;48.904;9.126;2023-02-26T22:04:08;99032.91;;;7.79;58.63
60820;BME280;46641;48.904;9.126;2023-02-26T22:08:58;99038.94;;;7.79;58.50
60820;BME280;46641;48.904;9.126;2023-02-26T22:13:48;99047.22;;;7.73;57.79
60820;BME280;46641;48.904;9.126;2023-02-26T22:18:39;99036.09;;;7.71;58.17
60820;BME280;46641;48.904;9.126;2023-02-26T22:23:29;99036.94;;;7.71;59.22
60820;BME280;46641;48.904;9.126;2023-02-26T22:28:19;99043.78;;;7.72;59.31
60820;BME280;46641;48.904;9.126;2023-02-26T22:33:10;99048.31;;;7.70;59.70
60820;BME280;46641;48.904;9.126;2023-02-26T22:38:00;99044.84;;;7.70;58.92
60820;BME280;46641;48.904;9.126;2023-02-26T22:42:51;99041.06;;;7.63;58.80
60820;BME280;46641;48.904;9.126;2023-02-26T22:47:45;99043.56;;;7.64;58.14
60820;BME280;46641;48.904;9.126;2023-02-26T22:52:37;99045.44;;;7.62;59.37
60820;BME280;46641;48.904;9.126;2023-02-26T22:57:27;99042.00;;;7.62;59.19
60820;BME280;46641;48.904;9.126;2023-02-26T23:02:17;99040.59;;;7.58;58.33
60820;BME280;46641;48.904;9.126;2023-02-26T23:07:08;99038.91;;;7.57;58.41
60820;BME280;46641;48.904;9.126;2023-02-26T23:11:58;99037.63;;;7.51;58.78
60820;BME280;46641;48.904;9.126;2023-02-26T23:16:49;99044.34;;;7.54;59.34
60820;BME280;46641;48.904;9.126;2023-02-26T23:21:39;99045.44;;;7.51;58.70
60820;BME280;46641;48.904;9.126;2023-02-26T23:26:30;99042.81;;;7.51;59.68
60820;BME280;46641;48.904;9.126;2023-02-26T23:31:21;99042.91;;;7.49;59.28
60820;BME280;46641;48.904;9.126;2023-02-26T23:36:11;99043.06;;;7.48;58.23
60820;BME280;46641;48.904;9.126;2023-02-26T23:41:01;99056.41;;;7.43;59.06
60820;BME280;46641;48.904;9.126;2023-02-26T23:45:52;99052.25;;;7.41;59.44
60820;BME280;46641;48.904;9.126;2023-02-26T23:50:42;99046.22;;;7.40;59.53
60820;BME280;46641;48.904;9.126;2023-02-26T23:55:32;99041.94;;;7.39;60.10
